Terminal Aerodrome Forecast
Issued by NWS

Home | Current Version | Previous Version | Graphics & Text | Print | Product List | Glossary Off
Versions: 1 2 3 4 5 6 7 8 9 10 11 12 13 14 15 16 17 18 19 20

000
FTUS43 KGRB 290741 AAB
TAFAUW
TAF AMD
KAUW 290741Z 2908/3006 VRB03KT P6SM VCSH SCT012 OVC040
     FM291700 05007KT P6SM SCT070
     FM292000 08006KT P6SM SCT100
     FM292300 11006KT P6SM SCT090=

USA.gov is the U.S. government's official web portal to all federal, state and local government web resources and services.